Aviation Digital Data Service (ADDS)

Output produced by METARs form (1850 UTC 15 October 2018)
found at http://www.aviationweather.gov/metar/data/
 
KIWA 151741Z 1518/1618 06007KT P6SM FEW060 
     FM152300 06015G25KT P6SM SCT060 
     FM160200 07012G22KT P6SM -SHRA BKN050 OVC100 
     FM161300 09012G22KT P6SM VCSH BKN050 OVC100 
     FM161700 07012KT P6SM BKN050 OVC100